Time;durP1;ratioP1;P1;durP2;ratioP2;P2;SDS_P1;SDS_P2;PMS_P1;PMS_P2;Temp;Humidity;BMP_temperature;BMP_pressure;BME280_temperature;BME280_humidity;BME280_pressure;Samples;Min_cycle;Max_cycle;Signal;HPM_P1;HPM_P2
2022/06/26 00:01:02;;;;;;;;;;;;;;;15.94;79.13;98332.91;4213929;28;19924;-70
2022/06/26 00:03:02;;;;;;;;;;;;;;;15.88;79.53;98332.56;4214793;28;20113;-70
2022/06/26 00:05:03;;;;;;;;;;;;;;;15.87;79.11;98333.00;4215749;28;20335;-70
2022/06/26 00:07:04;;;;;;;;;;;;;;;15.85;79.09;98325.03;4214563;28;20351;-71
2022/06/26 00:09:04;;;;;;;;;;;;;;;15.84;78.79;98328.25;4214786;28;20224;-70
2022/06/26 00:11:04;;;;;;;;;;;;;;;15.82;79.50;98333.47;4209988;28;19916;-70
2022/06/26 00:13:05;;;;;;;;;;;;;;;15.74;80.46;98329.97;4214340;28;19915;-70
2022/06/26 00:15:05;;;;;;;;;;;;;;;15.65;81.79;98327.69;4213851;28;20343;-71
2022/06/26 00:17:05;;;;;;;;;;;;;;;15.61;82.08;98331.69;4211636;28;19967;-70
2022/06/26 00:19:06;;;;;;;;;;;;;;;15.58;82.07;98324.94;4210924;28;19930;-70
2022/06/26 00:21:06;;;;;;;;;;;;;;;15.54;83.14;98331.75;4214500;28;19917;-70
2022/06/26 00:23:07;;;;;;;;;;;;;;;15.56;81.06;98338.50;4218718;28;19964;-70
2022/06/26 00:25:08;;;;;;;;;;;;;;;15.60;80.27;98339.25;4219531;28;19926;-71
2022/06/26 00:27:09;;;;;;;;;;;;;;;15.60;81.03;98328.09;4215288;28;19923;-70
2022/06/26 00:29:09;;;;;;;;;;;;;;;15.57;80.38;98336.50;4218774;28;19919;-70
2022/06/26 00:31:09;;;;;;;;;;;;;;;15.56;81.89;98335.72;4211408;28;19978;-70
2022/06/26 00:33:09;;;;;;;;;;;;;;;15.55;82.21;98336.09;4217779;28;19916;-70
2022/06/26 00:35:10;;;;;;;;;;;;;;;15.63;80.83;98338.44;4216850;28;20195;-70
2022/06/26 00:37:10;;;;;;;;;;;;;;;15.62;82.22;98333.28;4207649;27;20192;-70
2022/06/26 00:39:10;;;;;;;;;;;;;;;15.57;82.58;98334.50;4217547;28;20355;-70
2022/06/26 00:41:11;;;;;;;;;;;;;;;15.58;80.15;98336.09;4213749;28;20406;-71
2022/06/26 00:43:11;;;;;;;;;;;;;;;15.50;82.13;98331.78;4212407;28;19923;-72
2022/06/26 00:45:11;;;;;;;;;;;;;;;15.42;82.21;98331.06;4210470;28;19920;-71
2022/06/26 00:47:12;;;;;;;;;;;;;;;15.36;83.01;98331.94;4219316;28;19917;-71
2022/06/26 00:49:12;;;;;;;;;;;;;;;15.32;83.76;98337.56;4212476;28;20082;-70
2022/06/26 00:51:12;;;;;;;;;;;;;;;15.28;85.00;98334.00;4209611;28;20445;-70
2022/06/26 00:53:13;;;;;;;;;;;;;;;15.27;84.94;98326.84;4214704;28;19920;-70
2022/06/26 00:55:13;;;;;;;;;;;;;;;15.29;84.07;98327.22;4214613;28;19965;-70
2022/06/26 00:57:13;;;;;;;;;;;;;;;15.33;83.29;98338.34;4216571;28;20054;-70
2022/06/26 00:59:14;;;;;;;;;;;;;;;15.33;83.19;98332.78;4213072;28;20667;-70
2022/06/26 01:01:14;;;;;;;;;;;;;;;15.35;82.11;98335.94;4214944;28;19916;-71
2022/06/26 01:03:14;;;;;;;;;;;;;;;15.44;79.67;98339.81;4213754;28;20398;-70
2022/06/26 01:05:14;;;;;;;;;;;;;;;15.49;80.55;98338.56;4215602;28;20305;-70
2022/06/26 01:07:15;;;;;;;;;;;;;;;15.49;78.91;98341.38;4214127;28;19915;-70
2022/06/26 01:09:15;;;;;;;;;;;;;;;15.41;79.35;98339.84;4213447;28;19923;-70
2022/06/26 01:11:20;;;;;;;;;;;;;;;15.35;79.45;98336.72;4211652;28;19971;-70
2022/06/26 01:13:21;;;;;;;;;;;;;;;15.26;80.74;98341.97;4212970;28;20344;-70
2022/06/26 01:15:21;;;;;;;;;;;;;;;15.13;81.98;98338.91;4212663;28;20053;-70
2022/06/26 01:17:21;;;;;;;;;;;;;;;15.06;81.62;98336.19;4213478;28;19926;-70
2022/06/26 01:19:22;;;;;;;;;;;;;;;14.98;81.92;98337.47;4213997;28;19919;-70
2022/06/26 01:21:23;;;;;;;;;;;;;;;14.93;82.74;98340.69;4209842;28;19916;-70
2022/06/26 01:23:23;;;;;;;;;;;;;;;14.94;81.45;98339.47;4208098;28;19949;-70
2022/06/26 01:25:24;;;;;;;;;;;;;;;14.95;81.59;98343.06;4211310;28;19916;-70
2022/06/26 01:27:24;;;;;;;;;;;;;;;14.89;82.78;98343.50;4212884;28;20364;-70
2022/06/26 01:29:24;;;;;;;;;;;;;;;14.83;83.65;98341.56;4214287;28;19923;-71
2022/06/26 01:31:24;;;;;;;;;;;;;;;14.72;85.79;98346.41;4215128;28;19927;-70
2022/06/26 01:33:25;;;;;;;;;;;;;;;14.64;85.94;98347.66;4213954;28;19920;-70
2022/06/26 01:35:25;;;;;;;;;;;;;;;14.57;86.57;98345.72;4214113;28;20298;-71
2022/06/26 01:37:25;;;;;;;;;;;;;;;14.50;86.43;98340.22;4219515;28;19916;-70
2022/06/26 01:39:25;;;;;;;;;;;;;;;14.45;86.41;98346.97;4214216;28;20034;-70
2022/06/26 01:41:26;;;;;;;;;;;;;;;14.40;87.20;98349.34;4214188;28;20429;-70
2022/06/26 01:43:29;;;;;;;;;;;;;;;14.34;87.84;98347.03;4212751;28;19916;-70
2022/06/26 01:45:30;;;;;;;;;;;;;;;14.31;88.49;98349.81;4206894;28;19942;-70
2022/06/26 01:47:30;;;;;;;;;;;;;;;14.28;89.10;98356.97;4210434;28;19916;-69
2022/06/26 01:49:31;;;;;;;;;;;;;;;14.23;88.92;98348.25;4213803;28;20560;-70
2022/06/26 01:51:31;;;;;;;;;;;;;;;14.20;87.60;98363.00;4207469;28;20363;-70
2022/06/26 01:53:32;;;;;;;;;;;;;;;14.17;87.35;98356.25;4214145;28;19919;-70
2022/06/26 01:55:32;;;;;;;;;;;;;;;14.15;87.88;98355.88;4207890;28;19990;-70
2022/06/26 01:57:32;;;;;;;;;;;;;;;14.11;89.10;98357.06;4218270;28;19916;-70
2022/06/26 01:59:32;;;;;;;;;;;;;;;14.09;89.71;98357.50;4215117;28;19965;-70
2022/06/26 02:01:33;;;;;;;;;;;;;;;14.09;89.28;98354.72;4210619;28;19919;-70
2022/06/26 02:03:33;;;;;;;;;;;;;;;14.09;87.75;98351.94;4217454;28;19924;-70
2022/06/26 02:05:34;;;;;;;;;;;;;;;14.10;86.28;98356.28;4211574;28;20283;-70
2022/06/26 02:07:34;;;;;;;;;;;;;;;14.08;86.58;98349.56;4214040;28;20291;-70
2022/06/26 02:14:12;;;;;;;;;;;;;;;14.02;85.77;98349.16;4210292;28;19954;-70
2022/06/26 02:16:15;;;;;;;;;;;;;;;13.99;86.20;98344.44;4211334;28;19920;-70
2022/06/26 02:18:15;;;;;;;;;;;;;;;13.92;86.93;98356.38;4212673;28;19923;-70
2022/06/26 02:20:15;;;;;;;;;;;;;;;13.91;86.28;98354.00;4208228;28;19916;-70
2022/06/26 02:22:16;;;;;;;;;;;;;;;13.91;85.95;98357.56;4213501;28;20106;-70
2022/06/26 02:24:16;;;;;;;;;;;;;;;13.85;86.98;98348.03;4211890;28;20339;-70
2022/06/26 02:26:17;;;;;;;;;;;;;;;13.80;86.96;98356.00;4216990;28;19920;-70
2022/06/26 02:28:18;;;;;;;;;;;;;;;13.75;87.07;98351.66;4213267;28;20222;-70
2022/06/26 02:30:18;;;;;;;;;;;;;;;13.72;87.90;98356.03;4214605;28;19916;-68
2022/06/26 02:32:18;;;;;;;;;;;;;;;13.70;86.98;98361.19;4207662;28;19957;-69
2022/06/26 02:34:18;;;;;;;;;;;;;;;13.73;86.20;98362.38;4211484;28;19920;-70
2022/06/26 02:36:18;;;;;;;;;;;;;;;13.74;87.29;98363.97;4212755;27;19916;-70
2022/06/26 02:38:19;;;;;;;;;;;;;;;13.73;86.66;98365.94;4216491;28;20340;-70
2022/06/26 02:40:20;;;;;;;;;;;;;;;13.73;86.60;98370.72;4204853;28;19916;-70
2022/06/26 02:42:21;;;;;;;;;;;;;;;13.72;85.67;98367.13;4214816;28;20305;-70
2022/06/26 02:44:21;;;;;;;;;;;;;;;13.69;86.18;98375.50;4208154;28;19963;-70
2022/06/26 02:46:21;;;;;;;;;;;;;;;13.65;86.38;98374.69;4216715;28;19958;-70
2022/06/26 02:48:22;;;;;;;;;;;;;;;13.60;86.60;98372.34;4212562;28;20407;-70
2022/06/26 02:50:22;;;;;;;;;;;;;;;13.62;85.24;98381.06;4213456;28;19916;-70
2022/06/26 02:52:22;;;;;;;;;;;;;;;13.58;85.53;98374.75;4207434;28;19966;-70
2022/06/26 02:54:22;;;;;;;;;;;;;;;13.56;86.57;98375.13;4210017;28;19973;-70
2022/06/26 02:56:23;;;;;;;;;;;;;;;13.54;85.86;98373.94;4212264;28;19924;-70
2022/06/26 02:58:24;;;;;;;;;;;;;;;13.51;86.18;98386.66;4214974;28;19964;-70
2022/06/26 03:00:24;;;;;;;;;;;;;;;13.51;86.39;98380.31;4214763;28;19923;-70
2022/06/26 03:02:25;;;;;;;;;;;;;;;13.45;86.83;98388.25;4211046;28;19924;-70
2022/06/26 03:04:25;;;;;;;;;;;;;;;13.43;87.08;98387.88;4210921;28;19916;-70
2022/06/26 03:06:25;;;;;;;;;;;;;;;13.42;86.43;98387.06;4217009;28;19955;-70
2022/06/26 03:08:25;;;;;;;;;;;;;;;13.39;87.10;98381.50;4211071;28;19916;-70
2022/06/26 03:10:26;;;;;;;;;;;;;;;13.35;88.65;98386.28;4212324;28;20323;-70
2022/06/26 03:12:26;;;;;;;;;;;;;;;13.26;89.47;98383.91;4211099;28;20662;-70
2022/06/26 03:14:26;;;;;;;;;;;;;;;13.18;90.50;98385.88;4206247;28;20030;-70
2022/06/26 03:16:26;;;;;;;;;;;;;;;13.16;90.24;98391.03;4213315;28;19916;-70
2022/06/26 03:18:27;;;;;;;;;;;;;;;13.12;90.76;98395.78;4213745;28;19916;-70
2022/06/26 03:20:27;;;;;;;;;;;;;;;13.11;91.00;98390.63;4215992;28;19915;-70
2022/06/26 03:22:27;;;;;;;;;;;;;;;13.12;89.84;98392.22;4211722;28;19926;-70
2022/06/26 03:24:27;;;;;;;;;;;;;;;13.14;89.86;98392.59;4207871;28;19922;-70
2022/06/26 03:26:28;;;;;;;;;;;;;;;13.16;88.40;98387.47;4216092;28;19916;-70
2022/06/26 03:28:28;;;;;;;;;;;;;;;13.18;87.88;98388.66;4214033;28;19920;-69
2022/06/26 03:30:28;;;;;;;;;;;;;;;13.17;88.43;98387.06;4215263;28;19940;-69
2022/06/26 03:32:29;;;;;;;;;;;;;;;13.12;89.07;98395.78;4208360;28;19962;-70
2022/06/26 03:34:29;;;;;;;;;;;;;;;13.11;88.87;98388.66;4220964;28;19919;-68
2022/06/26 03:36:29;;;;;;;;;;;;;;;13.11;89.77;98391.44;4217383;27;19922;-69
2022/06/26 03:38:30;;;;;;;;;;;;;;;13.10;89.96;98389.84;4215545;28;20006;-69
2022/06/26 03:40:30;;;;;;;;;;;;;;;13.07;91.00;98390.63;4213684;28;19916;-70
2022/06/26 03:42:30;;;;;;;;;;;;;;;13.06;90.45;98394.59;4214631;28;19915;-69
2022/06/26 03:44:30;;;;;;;;;;;;;;;13.07;89.98;98395.38;4214445;28;19920;-70
2022/06/26 03:46:31;;;;;;;;;;;;;;;13.07;90.32;98400.94;4217025;28;20642;-69
2022/06/26 03:48:31;;;;;;;;;;;;;;;13.09;90.46;98399.38;4213734;28;20600;-69
2022/06/26 03:50:32;;;;;;;;;;;;;;;13.15;88.03;98411.66;4214396;28;19963;-69
2022/06/26 03:52:32;;;;;;;;;;;;;;;13.16;88.39;98404.13;4207965;28;19923;-69
2022/06/26 03:54:34;;;;;;;;;;;;;;;13.17;88.21;98403.75;4214224;28;19941;-70
2022/06/26 03:56:34;;;;;;;;;;;;;;;13.13;90.48;98400.16;4215468;28;20264;-69
2022/06/26 03:58:34;;;;;;;;;;;;;;;13.12;91.43;98406.09;4214662;28;19916;-69
2022/06/26 04:00:34;;;;;;;;;;;;;;;13.08;92.33;98399.78;4217022;28;19915;-70
2022/06/26 04:02:35;;;;;;;;;;;;;;;13.07;92.49;98407.28;4210008;28;19942;-69
2022/06/26 04:04:35;;;;;;;;;;;;;;;13.05;92.50;98408.88;4214477;28;19920;-69
2022/06/26 04:06:35;;;;;;;;;;;;;;;13.08;90.28;98405.31;4216974;28;20378;-69
2022/06/26 04:08:35;;;;;;;;;;;;;;;13.10;89.69;98397.38;4213613;28;20322;-69
2022/06/26 04:10:36;;;;;;;;;;;;;;;13.11;92.42;98404.53;4213735;28;20079;-69
2022/06/26 04:12:36;;;;;;;;;;;;;;;13.11;92.44;98401.75;4213747;28;19945;-69
2022/06/26 04:14:37;;;;;;;;;;;;;;;13.10;92.41;98400.16;4214217;28;20038;-69
2022/06/26 04:16:37;;;;;;;;;;;;;;;13.15;90.65;98405.31;4213529;28;19920;-70
2022/06/26 04:18:37;;;;;;;;;;;;;;;13.21;89.68;98406.53;4218923;28;19961;-70
2022/06/26 04:20:37;;;;;;;;;;;;;;;13.27;89.89;98410.50;4218365;28;19919;-69
2022/06/26 04:22:38;;;;;;;;;;;;;;;13.35;89.62;98408.53;4214485;28;19916;-69
2022/06/26 04:24:39;;;;;;;;;;;;;;;13.45;88.44;98404.94;4215737;28;20456;-71
2022/06/26 04:26:39;;;;;;;;;;;;;;;13.57;88.15;98400.94;4219150;28;19915;-69
2022/06/26 04:28:39;;;;;;;;;;;;;;;13.70;87.85;98402.09;4212759;28;19969;-69
2022/06/26 04:30:39;;;;;;;;;;;;;;;13.85;86.67;98400.09;4213287;28;19920;-69
2022/06/26 04:32:39;;;;;;;;;;;;;;;13.98;85.96;98401.22;4209170;28;19916;-69
2022/06/26 04:34:40;;;;;;;;;;;;;;;14.17;85.23;98406.34;4212768;28;19923;-69
2022/06/26 04:36:40;;;;;;;;;;;;;;;14.32;84.64;98407.88;4213258;28;20391;-70
2022/06/26 04:38:40;;;;;;;;;;;;;;;14.49;83.34;98399.88;4217341;28;20395;-70
2022/06/26 04:40:40;;;;;;;;;;;;;;;14.64;84.22;98404.13;4218222;28;20378;-70
2022/06/26 04:42:41;;;;;;;;;;;;;;;14.77;86.00;98410.03;4212996;28;20044;-69
2022/06/26 04:44:42;;;;;;;;;;;;;;;14.88;86.42;98399.59;4208571;28;19916;-70
2022/06/26 04:46:42;;;;;;;;;;;;;;;14.98;86.17;98403.53;4192627;28;20099;-70
2022/06/26 04:48:42;;;;;;;;;;;;;;;15.05;87.57;98407.03;4210085;28;19916;-70
2022/06/26 04:50:42;;;;;;;;;;;;;;;15.14;85.36;98401.81;4220466;28;19998;-70
2022/06/26 04:52:46;;;;;;;;;;;;;;;15.25;85.92;98406.50;4209818;28;20306;-70
2022/06/26 04:54:46;;;;;;;;;;;;;;;15.34;86.85;98404.81;4213322;28;19920;-70
2022/06/26 04:56:47;;;;;;;;;;;;;;;15.42;83.71;98411.91;4208587;28;19920;-70
2022/06/26 04:58:47;;;;;;;;;;;;;;;15.54;83.48;98418.19;4216200;28;19916;-70
2022/06/26 05:00:47;;;;;;;;;;;;;;;15.66;83.20;98412.94;4210229;28;20010;-70
2022/06/26 05:02:47;;;;;;;;;;;;;;;15.78;83.87;98414.38;4214664;28;19929;-70
2022/06/26 05:04:48;;;;;;;;;;;;;;;15.90;83.79;98421.47;4214941;28;19942;-70
2022/06/26 05:06:48;;;;;;;;;;;;;;;16.02;83.18;98416.13;4216249;28;20287;-70
2022/06/26 05:08:48;;;;;;;;;;;;;;;16.05;83.06;98417.28;4213520;28;19963;-70
2022/06/26 05:10:49;;;;;;;;;;;;;;;16.04;82.56;98414.91;4207202;28;19919;-70
2022/06/26 05:12:49;;;;;;;;;;;;;;;16.14;81.17;98417.59;4215781;28;19916;-70
2022/06/26 05:14:49;;;;;;;;;;;;;;;16.26;81.26;98411.44;4213993;28;19917;-70
2022/06/26 05:16:49;;;;;;;;;;;;;;;16.40;81.65;98418.06;4213343;28;19959;-70
2022/06/26 05:18:50;;;;;;;;;;;;;;;16.52;82.06;98420.28;4209398;28;19951;-70
2022/06/26 05:20:50;;;;;;;;;;;;;;;16.52;81.82;98418.28;4212866;28;19965;-70
2022/06/26 05:22:50;;;;;;;;;;;;;;;16.60;81.53;98410.63;4212743;28;19916;-70
2022/06/26 05:24:50;;;;;;;;;;;;;;;16.55;80.51;98417.47;4213212;28;20175;-70
2022/06/26 05:26:51;;;;;;;;;;;;;;;16.47;80.73;98418.00;4213548;28;19926;-70
2022/06/26 05:28:51;;;;;;;;;;;;;;;16.45;80.62;98418.38;4211589;28;20103;-70
2022/06/26 05:30:51;;;;;;;;;;;;;;;16.40;80.34;98415.28;4208100;28;20267;-70
2022/06/26 05:32:51;;;;;;;;;;;;;;;16.33;80.45;98418.94;4216043;28;20191;-70
2022/06/26 05:34:52;;;;;;;;;;;;;;;16.28;79.23;98420.19;4213859;28;20347;-70
2022/06/26 05:36:52;;;;;;;;;;;;;;;16.28;79.82;98419.41;4212870;27;20339;-70
2022/06/26 05:38:52;;;;;;;;;;;;;;;16.27;80.19;98427.00;4212576;28;19911;-70
2022/06/26 05:40:52;;;;;;;;;;;;;;;16.27;80.41;98417.81;4148075;28;19934;-70
2022/06/26 05:42:53;;;;;;;;;;;;;;;16.29;80.36;98421.78;4212676;28;19947;-70
2022/06/26 05:44:54;;;;;;;;;;;;;;;16.42;79.95;98415.66;4217923;28;19963;-69
2022/06/26 05:46:54;;;;;;;;;;;;;;;16.62;80.25;98416.56;4216490;28;20182;-70
2022/06/26 05:48:54;;;;;;;;;;;;;;;16.84;80.61;98415.09;4212695;28;20356;-70
2022/06/26 05:50:55;;;;;;;;;;;;;;;17.05;79.23;98416.78;4210551;28;19916;-70
2022/06/26 05:52:56;;;;;;;;;;;;;;;17.25;77.30;98416.84;4218057;28;20426;-70
2022/06/26 05:54:56;;;;;;;;;;;;;;;17.40;75.95;98421.00;4206615;28;19916;-70
2022/06/26 05:56:56;;;;;;;;;;;;;;;17.61;75.21;98421.84;4212872;28;20274;-70
2022/06/26 05:58:56;;;;;;;;;;;;;;;17.81;74.96;98428.31;4205765;28;19934;-70
2022/06/26 06:00:56;;;;;;;;;;;;;;;18.00;73.50;98423.16;4212572;28;20348;-70
2022/06/26 06:02:57;;;;;;;;;;;;;;;18.15;74.13;98425.25;4214394;28;19920;-70
2022/06/26 06:04:57;;;;;;;;;;;;;;;18.30;73.13;98428.56;4209578;28;19916;-70
2022/06/26 06:06:57;;;;;;;;;;;;;;;18.42;73.19;98429.94;4209720;28;19927;-70
2022/06/26 06:08:57;;;;;;;;;;;;;;;18.52;72.79;98426.09;4212281;28;19924;-70
2022/06/26 06:10:57;;;;;;;;;;;;;;;18.69;72.28;98424.94;4208164;28;20048;-70
2022/06/26 06:12:58;;;;;;;;;;;;;;;18.83;71.93;98434.28;4218066;28;21171;-70
2022/06/26 06:14:58;;;;;;;;;;;;;;;18.98;70.83;98430.72;4210202;28;20412;-70
2022/06/26 06:17:35;;;;;;;;;;;;;;;19.14;70.03;98435.56;4209226;28;19967;-70
2022/06/26 06:19:18;;;;;;;;;;;;;;;19.32;69.42;98435.13;4212660;28;19916;-70
2022/06/26 06:21:19;;;;;;;;;;;;;;;19.43;67.21;98440.47;4210254;28;19916;-70
2022/06/26 06:23:19;;;;;;;;;;;;;;;19.50;68.35;98432.69;4213376;28;19916;-70
2022/06/26 06:25:19;;;;;;;;;;;;;;;19.46;68.10;98437.59;4213476;28;20171;-70
2022/06/26 06:27:20;;;;;;;;;;;;;;;19.54;68.08;98444.63;4209019;28;20290;-70
2022/06/26 06:29:20;;;;;;;;;;;;;;;19.71;68.53;98453.06;4215416;28;19920;-70
2022/06/26 06:31:20;;;;;;;;;;;;;;;19.86;67.54;98454.28;4212184;28;19985;-70
2022/06/26 06:33:21;;;;;;;;;;;;;;;20.00;66.85;98453.09;4205616;28;19916;-70
2022/06/26 06:35:21;;;;;;;;;;;;;;;20.10;66.21;98452.00;4212173;28;19916;-70
2022/06/26 06:37:22;;;;;;;;;;;;;;;20.23;65.38;98458.47;4211545;28;19933;-70
2022/06/26 06:39:22;;;;;;;;;;;;;;;20.39;66.06;98455.59;4205072;28;20658;-70
2022/06/26 06:41:22;;;;;;;;;;;;;;;20.52;65.26;98460.50;4215390;28;19981;-70
2022/06/26 06:43:22;;;;;;;;;;;;;;;20.66;65.22;98458.06;4208944;28;20360;-70
2022/06/26 06:45:22;;;;;;;;;;;;;;;20.78;64.43;98459.34;4213058;28;20007;-70
2022/06/26 06:47:23;;;;;;;;;;;;;;;20.88;64.10;98452.59;4205471;28;20517;-70
2022/06/26 06:49:23;;;;;;;;;;;;;;;20.94;63.59;98447.22;4211037;28;20171;-70
2022/06/26 06:51:23;;;;;;;;;;;;;;;20.96;63.17;98455.97;4214978;28;20372;-71
2022/06/26 06:53:23;;;;;;;;;;;;;;;21.03;62.46;98455.78;4213387;28;19920;-70
2022/06/26 06:55:23;;;;;;;;;;;;;;;21.15;62.40;98451.38;4211007;28;19920;-70
2022/06/26 06:57:24;;;;;;;;;;;;;;;21.27;62.37;98459.84;4211389;28;20015;-70
2022/06/26 06:59:24;;;;;;;;;;;;;;;21.28;62.57;98452.19;4203651;28;19951;-70
2022/06/26 07:01:24;;;;;;;;;;;;;;;21.24;63.40;98451.47;4210150;28;19922;-70
2022/06/26 07:03:24;;;;;;;;;;;;;;;21.21;63.43;98458.03;4211264;28;19920;-70
2022/06/26 07:05:25;;;;;;;;;;;;;;;21.24;63.13;98457.91;4186440;28;19972;-70
2022/06/26 07:07:25;;;;;;;;;;;;;;;21.31;62.97;98466.13;4214037;28;19932;-70
2022/06/26 07:09:25;;;;;;;;;;;;;;;21.51;61.99;98465.88;4210584;28;20348;-70
2022/06/26 07:11:25;;;;;;;;;;;;;;;21.59;62.03;98458.00;4213794;28;19920;-70
2022/06/26 07:13:25;;;;;;;;;;;;;;;21.69;61.94;98456.88;4204412;28;19920;-70
2022/06/26 07:15:26;;;;;;;;;;;;;;;21.82;61.34;98460.44;4212234;28;19919;-70
2022/06/26 07:17:26;;;;;;;;;;;;;;;21.88;59.54;98457.84;4211175;28;19920;-71
2022/06/26 07:19:26;;;;;;;;;;;;;;;21.88;60.10;98453.00;4215661;28;20011;-71
2022/06/26 07:21:27;;;;;;;;;;;;;;;21.95;60.13;98459.63;4213649;28;19950;-70
2022/06/26 07:23:27;;;;;;;;;;;;;;;22.03;59.61;98450.47;4212797;28;20375;-70
2022/06/26 07:25:27;;;;;;;;;;;;;;;22.12;59.65;98449.78;4205283;28;20652;-70
2022/06/26 07:27:30;;;;;;;;;;;;;;;22.20;59.57;98448.28;4210357;28;20195;-70
2022/06/26 07:29:30;;;;;;;;;;;;;;;22.33;59.57;98448.22;4211565;28;19961;-70
2022/06/26 07:31:31;;;;;;;;;;;;;;;22.51;58.64;98447.56;4214549;28;20363;-70
2022/06/26 07:35:49;;;;;;;;;;;;;;;22.71;58.29;98450.84;4213180;28;20314;-70
2022/06/26 07:37:50;;;;;;;;;;;;;;;22.75;57.98;98454.31;4205964;28;20359;-71
2022/06/26 07:39:50;;;;;;;;;;;;;;;23.01;54.47;98442.91;4213530;28;19920;-71
2022/06/26 07:41:50;;;;;;;;;;;;;;;23.25;53.06;98436.25;4208213;28;19948;-71
2022/06/26 07:43:50;;;;;;;;;;;;;;;23.44;52.66;98439.94;4212824;28;19945;-70
2022/06/26 07:45:51;;;;;;;;;;;;;;;23.59;51.35;98433.69;4212311;28;19977;-70
2022/06/26 07:47:51;;;;;;;;;;;;;;;23.80;50.11;98438.47;4215254;28;19916;-70
2022/06/26 07:49:51;;;;;;;;;;;;;;;23.96;50.78;98429.69;4215948;28;19919;-70
2022/06/26 07:51:51;;;;;;;;;;;;;;;24.10;51.30;98433.94;4213095;28;19912;-70
2022/06/26 07:53:51;;;;;;;;;;;;;;;24.23;52.17;98434.56;4208926;28;19982;-70
2022/06/26 07:55:52;;;;;;;;;;;;;;;24.37;50.35;98433.16;4216230;28;19924;-70
2022/06/26 07:57:52;;;;;;;;;;;;;;;24.46;48.45;98435.19;4210690;28;20106;-70
2022/06/26 07:59:52;;;;;;;;;;;;;;;24.51;47.48;98443.84;4210320;28;20337;-70
2022/06/26 08:01:52;;;;;;;;;;;;;;;24.61;48.67;98450.25;4207020;28;19952;-70
2022/06/26 08:03:53;;;;;;;;;;;;;;;24.74;47.21;98456.53;4205087;28;20142;-70
2022/06/26 08:05:53;;;;;;;;;;;;;;;24.87;46.21;98445.03;4207701;28;20391;-70
2022/06/26 08:07:53;;;;;;;;;;;;;;;24.91;46.72;98443.59;4206224;28;19924;-70
2022/06/26 08:09:53;;;;;;;;;;;;;;;24.96;46.29;98450.66;4205825;28;19942;-70
2022/06/26 08:11:53;;;;;;;;;;;;;;;25.04;45.39;98439.81;4208694;28;19931;-70
2022/06/26 08:13:54;;;;;;;;;;;;;;;25.09;45.83;98445.63;4206172;28;19990;-70
2022/06/26 08:15:54;;;;;;;;;;;;;;;25.10;45.89;98443.56;4209340;28;20010;-70
2022/06/26 08:17:54;;;;;;;;;;;;;;;25.20;46.87;98443.03;4211446;28;20002;-70
2022/06/26 08:19:54;;;;;;;;;;;;;;;25.31;45.04;98445.34;4208564;28;19912;-70
2022/06/26 08:22:01;;;;;;;;;;;;;;;24.88;46.94;98440.94;4211152;28;19946;-70
2022/06/26 08:24:01;;;;;;;;;;;;;;;24.99;46.19;98446.06;4211656;27;19954;-70
2022/06/26 08:26:01;;;;;;;;;;;;;;;25.01;45.91;98435.09;4207214;28;19916;-70
2022/06/26 08:28:02;;;;;;;;;;;;;;;25.16;44.28;98430.34;4210534;28;19985;-71
2022/06/26 08:30:02;;;;;;;;;;;;;;;25.12;44.28;98435.38;4209624;28;20091;-71
2022/06/26 08:32:03;;;;;;;;;;;;;;;24.95;45.76;98432.09;4211040;28;20383;-71
2022/06/26 08:34:03;;;;;;;;;;;;;;;24.80;46.00;98431.19;4209939;28;19935;-71
2022/06/26 08:36:04;;;;;;;;;;;;;;;24.68;44.99;98432.97;4211581;28;20076;-71
2022/06/26 08:38:04;;;;;;;;;;;;;;;24.69;45.61;98430.94;4208070;28;19920;-71
2022/06/26 08:40:05;;;;;;;;;;;;;;;24.76;45.74;98434.22;4208156;28;19924;-71
2022/06/26 08:42:06;;;;;;;;;;;;;;;24.70;46.41;98430.44;4209410;28;20541;-71
2022/06/26 08:44:07;;;;;;;;;;;;;;;24.87;45.41;98428.81;4208220;28;19927;-70
2022/06/26 08:46:07;;;;;;;;;;;;;;;25.10;44.61;98430.19;4209037;28;19916;-70
2022/06/26 08:48:09;;;;;;;;;;;;;;;25.28;43.27;98428.53;4210115;28;19937;-70
2022/06/26 08:50:09;;;;;;;;;;;;;;;25.52;42.51;98420.88;4208210;28;19920;-71
2022/06/26 08:52:10;;;;;;;;;;;;;;;25.66;41.17;98423.00;4210237;28;19976;-70
2022/06/26 08:54:12;;;;;;;;;;;;;;;25.81;41.56;98428.72;4209640;28;19920;-70
2022/06/26 08:56:12;;;;;;;;;;;;;;;25.91;41.26;98429.47;4207823;28;20043;-71
2022/06/26 08:58:13;;;;;;;;;;;;;;;26.03;41.07;98415.03;4209933;28;19971;-71
2022/06/26 09:00:14;;;;;;;;;;;;;;;26.20;40.66;98415.38;4209164;28;19916;-71
2022/06/26 09:02:14;;;;;;;;;;;;;;;26.33;40.37;98418.72;4209581;28;20212;-71
2022/06/26 09:04:14;;;;;;;;;;;;;;;26.47;40.37;98422.84;4219581;28;20253;-71
2022/06/26 09:06:15;;;;;;;;;;;;;;;26.58;39.68;98427.97;4213683;28;20468;-71
2022/06/26 09:08:19;;;;;;;;;;;;;;;26.72;38.50;98426.41;4217382;28;20436;-71
2022/06/26 09:10:20;;;;;;;;;;;;;;;26.95;40.30;98419.84;4210690;28;19999;-71
2022/06/26 09:12:20;;;;;;;;;;;;;;;27.13;39.28;98416.81;4213598;28;19955;-71
2022/06/26 09:14:21;;;;;;;;;;;;;;;27.21;37.85;98420.03;4211937;28;19969;-71
2022/06/26 09:16:30;;;;;;;;;;;;;;;27.23;38.59;98417.50;4211396;28;19920;-71
2022/06/26 09:18:33;;;;;;;;;;;;;;;27.39;37.31;98424.69;4211086;28;20288;-71
2022/06/26 09:20:34;;;;;;;;;;;;;;;27.49;36.92;98426.13;4210579;28;19923;-71
2022/06/26 09:22:34;;;;;;;;;;;;;;;27.59;37.67;98419.03;4216588;28;20210;-70
2022/06/26 09:24:36;;;;;;;;;;;;;;;27.80;37.95;98422.69;4208251;28;20556;-71
2022/06/26 09:26:37;;;;;;;;;;;;;;;27.74;37.47;98424.72;4212616;28;19920;-71
2022/06/26 09:28:37;;;;;;;;;;;;;;;27.66;36.90;98424.34;4217471;28;19978;-71
2022/06/26 09:30:54;;;;;;;;;;;;;;;27.52;37.51;98430.81;4214689;28;19920;-71
2022/06/26 09:32:54;;;;;;;;;;;;;;;27.40;37.29;98432.72;4209856;28;20139;-71
2022/06/26 09:34:54;;;;;;;;;;;;;;;27.17;37.37;98427.97;4214177;28;19966;-71
2022/06/26 09:36:56;;;;;;;;;;;;;;;27.04;37.14;98427.50;4208789;27;20475;-71
2022/06/26 09:38:56;;;;;;;;;;;;;;;26.99;37.80;98428.16;4214272;28;20314;-71
2022/06/26 09:40:58;;;;;;;;;;;;;;;27.18;38.50;98429.53;4214156;28;19916;-71
2022/06/26 09:42:58;;;;;;;;;;;;;;;27.37;39.14;98430.06;4209222;28;20446;-71
2022/06/26 09:45:01;;;;;;;;;;;;;;;27.59;37.77;98430.41;4214883;28;19915;-71
2022/06/26 09:47:06;;;;;;;;;;;;;;;27.60;38.10;98426.28;4214304;28;20064;-71
2022/06/26 09:49:07;;;;;;;;;;;;;;;27.75;37.50;98431.19;4208123;28;20049;-71
2022/06/26 09:51:11;;;;;;;;;;;;;;;27.88;37.24;98435.22;4208811;28;19916;-71
2022/06/26 09:53:13;;;;;;;;;;;;;;;27.80;37.24;98424.75;4206009;28;19920;-71
2022/06/26 09:55:13;;;;;;;;;;;;;;;27.82;37.80;98419.38;4206676;28;20301;-71
2022/06/26 09:57:14;;;;;;;;;;;;;;;28.08;37.61;98423.06;4217879;28;19966;-71
2022/06/26 09:59:15;;;;;;;;;;;;;;;28.38;36.75;98425.75;4213394;28;20221;-71
2022/06/26 10:08:15;;;;;;;;;;;;;;;28.98;34.38;98410.59;4212549;28;19964;-71
2022/06/26 10:10:17;;;;;;;;;;;;;;;29.09;34.32;98419.22;4213256;28;19919;-71
2022/06/26 10:12:17;;;;;;;;;;;;;;;29.25;34.69;98429.19;4211204;28;19916;-71
2022/06/26 10:14:21;;;;;;;;;;;;;;;29.30;33.11;98424.81;4210720;28;19924;-71
2022/06/26 10:16:31;;;;;;;;;;;;;;;29.18;33.25;98421.09;4212327;28;19912;-71
2022/06/26 10:18:40;;;;;;;;;;;;;;;29.18;33.92;98418.25;4211274;28;20196;-71
2022/06/26 10:20:41;;;;;;;;;;;;;;;29.17;33.79;98427.31;4216218;28;19920;-71
2022/06/26 10:22:43;;;;;;;;;;;;;;;29.14;33.66;98412.00;4207500;28;19916;-72
2022/06/26 10:24:53;;;;;;;;;;;;;;;29.20;33.41;98423.44;4212367;28;20252;-72
2022/06/26 10:26:54;;;;;;;;;;;;;;;29.32;35.21;98422.25;4210789;28;20014;-72
2022/06/26 10:28:59;;;;;;;;;;;;;;;29.36;33.64;98415.00;4209824;28;19920;-72
2022/06/26 10:31:05;;;;;;;;;;;;;;;29.49;33.55;98414.59;4211760;28;19916;-72
2022/06/26 10:33:09;;;;;;;;;;;;;;;29.71;33.94;98418.88;4205428;28;19964;-72
2022/06/26 10:35:10;;;;;;;;;;;;;;;29.76;32.50;98410.34;4211986;28;20304;-72
2022/06/26 10:37:14;;;;;;;;;;;;;;;29.74;33.59;98424.34;4216227;28;19915;-72
2022/06/26 10:39:14;;;;;;;;;;;;;;;29.72;32.12;98414.75;4212008;28;19916;-71
2022/06/26 10:43:48;;;;;;;;;;;;;;;29.64;32.89;98420.16;4207557;28;19927;-72
2022/06/26 10:45:48;;;;;;;;;;;;;;;29.75;32.29;98408.00;4210006;28;19924;-72